Akim Oda, Ghana

5:31 AM GMT on September 17, 2014 (GMT +0000)
Kotoka International | Change Station
CLOSE
Current Station
Airport
Location: Accra,
Elevation: 226 ft
Nearby Weather Stations

Elev 226 ft 5.61 °N, 0.17 °W | Updated 31 minutes ago

Clear
Clear
75 °F
Feels Like 75 °F
N
7
Wind Variable Wind from West

Today
High -- | Low -- °F
--% Chance of Precip.
Yesterday
High -- | Low -- °F
Precip. -- in
5:54 AM 6:02 PM
Last Quarter, 39% visible
Pressure 29.89 in
Visibility -9999.0 miles
Clouds
Dew Point 73 °F
Humidity 94%
Rainfall 0.00 in
Snow Depth Not available.
UV Not available.
Pollen Not available.
Air Quality Not available.
Flu Activity Not available.
METAR DGAA 170500Z 26006KT CAVOK 24/23 Q1012 NOSIG

More Conditions Fewer Conditions

Pressure 29.89 in
Visibility -9999.0 miles
Clouds
Dew Point 73 °F
Humidity 94%
Rainfall 0.00 in
Snow Depth Not available.
UV Not available.
Pollen Not available.
Air Quality Not available.
Flu Activity Not available.
METAR DGAA 170500Z 26006KT CAVOK 24/23 Q1012 NOSIG

More Conditions Fewer Conditions

10-Day Weather Forecast

Almanac

Astronomy

Sep. 17, 2014 Rise Set
Actual Time 5:54 AM GMT 6:02 PM GMT
Civil Twilight 5:33 AM GMT 6:23 PM GMT
Nautical Twilight 5:09 AM GMT 6:47 PM GMT
Astronomical Twilight 4:45 AM GMT 7:11 PM GMT
Moon 12:32 AM GMT 1:11 PM GMT
Length of Visible Light 12h 49m
Length of Day
12h 08m
Tomorrow will be 0m 19s shorter.
Last Quarter, 39% of the Moon is Illuminated
Today
Last Quarter
Sep 24
New
Oct 1
First Quarter
Oct 8
Full
Oct 15
Last Quarter

Yesterday's Extremes

Country Highs Country Lows

Community

WunderPhotos

Upload Photos

1,753,968 photos uploaded!

Nearby

Snow Depth

Not available.

Earthquake Activity

City Distance Mag. Time & Date
No recent earthquake activity has been reported nearby.
Minimum magnitude displayed is 2.5.

Coastal Water Temperatures

Place Temperature
No Stations Reporting

Nearby Weather Stations